Time;durP1;ratioP1;P1;durP2;ratioP2;P2;SDS_P1;SDS_P2;PMS_P1;PMS_P2;Temp;Humidity;BMP_temperature;BMP_pressure;BME280_temperature;BME280_humidity;BME280_pressure;Samples;Min_cycle;Max_cycle;Signal;HPM_P1;HPM_P2
2022/04/21 00:00:16;;;;;;;;;11.00;11.00;;;;;12.79;41.38;100164.16;4996828;28;45516;-65
2022/04/21 00:02:42;;;;;;;;;12.25;11.00;;;;;12.71;41.25;100148.75;4996597;28;45353;-61
2022/04/21 00:05:09;;;;;;;;;12.00;10.75;;;;;12.73;41.38;100159.22;4996503;28;45818;-63
2022/04/21 00:07:35;;;;;;;;;16.00;12.50;;;;;12.68;41.56;100149.75;4996458;28;45487;-64
2022/04/21 00:10:00;;;;;;;;;13.25;11.75;;;;;12.70;41.69;100155.78;4996696;28;45541;-62
2022/04/21 00:12:26;;;;;;;;;11.75;10.00;;;;;12.66;42.13;100156.06;4996680;28;45384;-64
2022/04/21 00:14:51;;;;;;;;;13.00;11.25;;;;;12.65;41.99;100151.72;4996438;28;45334;-66
2022/04/21 00:17:17;;;;;;;;;13.25;9.25;;;;;12.63;42.08;100140.41;4996539;28;45443;-60
2022/04/21 00:19:42;;;;;;;;;15.75;14.00;;;;;12.57;42.19;100139.81;4996574;28;45534;-68
2022/04/21 00:24:51;;;;;;;;;14.25;12.50;;;;;12.53;42.24;100140.06;4996189;28;45510;-66
2022/04/21 00:27:17;;;;;;;;;13.75;12.00;;;;;12.48;42.46;100132.41;4996378;28;45370;-63
2022/04/21 00:29:46;;;;;;;;;12.25;12.25;;;;;12.47;42.41;100127.19;4996631;28;45674;-66
2022/04/21 00:32:12;;;;;;;;;15.00;15.00;;;;;12.46;42.27;100126.38;4995894;28;46501;-62
2022/04/21 00:34:37;;;;;;;;;10.75;10.75;;;;;12.43;42.63;100118.63;4995961;28;45328;-65
2022/04/21 00:37:03;;;;;;;;;13.25;12.25;;;;;12.40;42.51;100122.28;4995367;28;45381;-67
2022/04/21 00:39:31;;;;;;;;;14.00;11.75;;;;;12.38;42.83;100126.78;4996223;28;45438;-63
2022/04/21 00:41:58;;;;;;;;;12.50;12.50;;;;;12.34;42.94;100117.34;4995990;28;47629;-65
2022/04/21 00:44:23;;;;;;;;;13.25;12.50;;;;;12.34;42.71;100124.41;4995824;28;45351;-62
2022/04/21 00:46:49;;;;;;;;;13.00;10.75;;;;;12.30;43.21;100122.88;4995797;28;45508;-63
2022/04/21 00:49:16;;;;;;;;;12.75;12.25;;;;;12.26;43.50;100116.91;4996007;28;45672;-66
2022/04/21 00:51:42;;;;;;;;;12.00;12.00;;;;;12.25;43.37;100115.19;4995599;28;46627;-65
2022/04/21 00:54:07;;;;;;;;;12.75;10.00;;;;;12.23;43.83;100114.44;4995727;28;45336;-64
2022/04/21 00:56:33;;;;;;;;;11.25;11.00;;;;;12.21;43.70;100116.31;4994480;28;45384;-66
2022/04/21 00:58:59;;;;;;;;;15.25;13.75;;;;;12.16;44.01;100118.34;4996543;28;45554;-66
2022/04/21 01:04:10;;;;;;;;;13.75;12.25;;;;;12.08;43.09;100110.84;4995646;28;45297;-66
2022/04/21 01:06:35;;;;;;;;;10.25;10.00;;;;;12.07;42.51;100103.84;4995669;28;45418;-64
2022/04/21 01:09:00;;;;;;;;;9.75;9.75;;;;;12.03;42.79;100099.69;4994776;28;45543;-63
2022/04/21 01:11:26;;;;;;;;;9.75;9.50;;;;;11.96;42.87;100097.34;4995430;28;45506;-66
2022/04/21 01:13:52;;;;;;;;;11.75;11.00;;;;;11.96;42.78;100099.16;4994374;28;45640;-65
2022/04/21 01:16:17;;;;;;;;;15.50;10.50;;;;;11.91;42.88;100088.00;4995989;28;45368;-67
2022/04/21 01:18:42;;;;;;;;;7.50;7.25;;;;;11.89;43.11;100095.97;4996148;28;45284;-66
2022/04/21 01:21:08;;;;;;;;;13.75;11.75;;;;;11.82;43.69;100090.22;4995310;28;46574;-62
2022/04/21 01:23:33;;;;;;;;;10.75;10.00;;;;;11.83;43.58;100096.31;4995323;28;45358;-61
2022/04/21 01:26:01;;;;;;;;;13.75;10.00;;;;;11.78;43.29;100088.66;4995739;28;45336;-60
2022/04/21 01:28:27;;;;;;;;;8.00;6.75;;;;;11.76;43.47;100087.91;4995697;28;45262;-63
2022/04/21 01:30:56;;;;;;;;;11.25;11.25;;;;;11.75;43.62;100093.22;4995252;28;45497;-65
2022/04/21 01:33:22;;;;;;;;;12.75;11.00;;;;;11.71;44.02;100087.28;4994926;28;45395;-59
2022/04/21 01:35:47;;;;;;;;;11.25;10.00;;;;;11.63;43.69;100079.78;4995327;28;45266;-59
2022/04/21 01:41:09;;;;;;;;;12.50;12.50;;;;;11.59;43.94;100086.13;4995499;28;45425;-64
2022/04/21 01:43:34;;;;;;;;;8.75;8.75;;;;;11.60;44.28;100089.63;4995314;28;45264;-62
2022/04/21 01:45:59;;;;;;;;;12.25;12.00;;;;;11.57;43.67;100080.09;4995460;28;45230;-64
2022/04/21 01:48:25;;;;;;;;;10.50;9.00;;;;;11.56;43.82;100078.41;4977953;28;45532;-64
2022/04/21 01:50:50;;;;;;;;;10.00;10.00;;;;;11.55;43.40;100074.06;4998615;28;45405;-64
2022/04/21 01:53:15;;;;;;;;;12.25;11.25;;;;;11.49;43.74;100067.31;4998533;28;45354;-61
2022/04/21 01:55:41;;;;;;;;;11.25;10.00;;;;;11.47;43.96;100066.56;4998661;28;45282;-63
2022/04/21 01:58:06;;;;;;;;;10.00;10.00;;;;;11.45;43.84;100065.78;4998805;28;45340;-60
2022/04/21 02:00:32;;;;;;;;;11.00;11.00;;;;;11.44;43.93;100074.63;4998653;28;46243;-60
2022/04/21 02:02:57;;;;;;;;;10.00;10.00;;;;;11.42;43.54;100067.75;4998543;28;45395;-62
2022/04/21 02:05:23;;;;;;;;;11.75;9.25;;;;;11.40;43.26;100063.41;4998641;28;45425;-60
2022/04/21 02:07:48;;;;;;;;;10.00;10.00;;;;;11.38;43.71;100059.13;4998884;28;45360;-58
2022/04/21 02:10:16;;;;;;;;;8.50;8.50;;;;;11.36;43.71;100061.84;4998434;28;45419;-60
2022/04/21 02:12:42;;;;;;;;;13.75;9.75;;;;;11.37;43.41;100060.06;4998190;28;45413;-65
2022/04/21 02:15:08;;;;;;;;;11.25;10.50;;;;;11.33;43.85;100056.75;4998209;28;45332;-64
2022/04/21 02:17:35;;;;;;;;;11.75;11.75;;;;;11.32;43.05;100060.31;4998853;28;45452;-64
2022/04/21 02:20:01;;;;;;;;;13.25;8.25;;;;;11.30;43.06;100053.41;4998276;28;46761;-65
2022/04/21 02:22:27;;;;;;;;;12.25;12.25;;;;;11.30;42.90;100050.78;4998105;28;45247;-66
2022/04/21 02:24:52;;;;;;;;;10.50;10.50;;;;;11.27;43.10;100051.81;4998259;28;45506;-65
2022/04/21 02:27:18;;;;;;;;;9.75;9.75;;;;;11.23;43.51;100047.63;4997063;28;45382;-64
2022/04/21 02:29:43;;;;;;;;;12.00;10.50;;;;;11.21;43.58;100039.78;4997846;28;45318;-66
2022/04/21 02:32:08;;;;;;;;;10.00;8.50;;;;;11.20;43.21;100037.25;4997867;28;45270;-65
2022/04/21 02:34:34;;;;;;;;;11.25;9.75;;;;;11.16;43.25;100030.44;4998449;28;45433;-66
2022/04/21 02:37:00;;;;;;;;;9.50;9.50;;;;;11.14;43.49;100037.56;4998270;28;45638;-64
2022/04/21 02:39:25;;;;;;;;;9.00;7.75;;;;;11.07;43.15;100023.88;4998000;28;45391;-63
2022/04/21 02:41:51;;;;;;;;;13.00;13.00;;;;;11.09;43.50;100037.78;4998040;28;45366;-65
2022/04/21 02:44:17;;;;;;;;;12.75;12.00;;;;;11.02;43.61;100021.44;4998078;28;45428;-66
2022/04/21 02:46:42;;;;;;;;;8.50;7.25;;;;;11.02;44.03;100028.50;4998233;28;45535;-66
2022/04/21 02:49:08;;;;;;;;;6.00;5.00;;;;;10.98;43.76;100021.72;4997827;28;46197;-66
2022/04/21 02:51:34;;;;;;;;;12.50;10.00;;;;;10.95;43.84;100023.56;4997310;28;45326;-63
2022/04/21 02:59:29;;;;;;;;;13.25;12.25;;;;;10.88;44.37;100021.31;4997377;28;45812;-61
2022/04/21 03:01:54;;;;;;;;;16.25;12.25;;;;;10.87;43.85;100022.22;4996651;28;45231;-63
2022/04/21 03:04:20;;;;;;;;;15.50;14.25;;;;;10.81;44.11;100020.78;4997535;28;45851;-61
2022/04/21 03:06:46;;;;;;;;;13.00;10.50;;;;;10.77;44.36;100025.31;4997678;28;45241;-64
2022/04/21 03:09:11;;;;;;;;;11.25;11.25;;;;;10.74;44.29;100022.00;4997453;28;45346;-63
2022/04/21 03:11:36;;;;;;;;;14.00;14.00;;;;;10.73;44.03;100020.31;4997660;28;45376;-64
2022/04/21 03:14:02;;;;;;;;;15.25;12.50;;;;;10.70;44.01;100015.22;4997359;28;45348;-65
2022/04/21 03:16:27;;;;;;;;;11.50;9.75;;;;;10.66;44.19;100009.22;4997505;28;45231;-65
2022/04/21 03:18:52;;;;;;;;;14.00;12.00;;;;;10.65;44.55;100016.28;4997237;28;46574;-64
2022/04/21 03:24:20;;;;;;;;;15.00;13.25;;;;;10.64;44.44;100011.94;4997312;28;45307;-66
2022/04/21 03:26:50;;;;;;;;;13.25;12.50;;;;;10.61;44.48;99998.09;4997328;28;45285;-66
2022/04/21 03:29:16;;;;;;;;;12.50;12.50;;;;;10.57;44.15;99996.53;4997099;28;45469;-67
2022/04/21 03:31:43;;;;;;;;;9.00;9.00;;;;;10.57;44.03;99994.75;4996921;28;45406;-64
2022/04/21 03:34:15;;;;;;;;;12.50;10.25;;;;;10.54;44.37;100002.78;4997298;28;45388;-65
2022/04/21 03:36:51;;;;;;;;;11.00;11.00;;;;;10.51;44.21;100003.81;4997105;28;45511;-63
2022/04/21 03:39:18;;;;;;;;;11.25;10.00;;;;;10.38;43.78;99982.47;4996858;28;45393;-60
2022/04/21 03:41:44;;;;;;;;;13.00;11.75;;;;;10.47;43.52;99996.13;4996945;28;45380;-62
2022/04/21 03:44:11;;;;;;;;;11.75;9.75;;;;;10.49;43.94;99999.53;4997251;28;45333;-63
2022/04/21 03:46:37;;;;;;;;;9.25;9.25;;;;;10.47;43.39;100004.03;4997579;28;45572;-62
2022/04/21 03:49:04;;;;;;;;;10.00;10.00;;;;;10.44;43.84;99991.88;4996772;28;45676;-60
2022/04/21 03:51:31;;;;;;;;;12.00;9.50;;;;;10.43;43.41;99992.81;4996433;28;45517;-61
2022/04/21 03:53:57;;;;;;;;;12.00;12.00;;;;;10.43;43.45;99997.22;4996701;28;45377;-64
2022/04/21 03:56:22;;;;;;;;;11.25;11.25;;;;;10.39;43.63;99996.50;4995381;28;45538;-64
2022/04/21 03:58:48;;;;;;;;;2.25;1.25;;;;;10.40;43.87;99997.34;4996501;28;46575;-63
2022/04/21 04:01:13;;;;;;;;;11.50;9.50;;;;;10.40;43.64;100008.75;4996754;28;45491;-65
2022/04/21 04:03:39;;;;;;;;;6.00;5.50;;;;;10.36;43.68;100000.09;4997107;28;45658;-63
2022/04/21 04:10:51;;;;;;;;;12.75;10.50;;;;;10.34;43.31;100001.13;4995487;28;45579;-63
2022/04/21 04:11:34;;;;;;;;;14.50;13.00;;;;;10.32;43.65;100009.06;4996016;28;45368;-63
2022/04/21 04:13:59;;;;;;;;;13.00;12.75;;;;;10.31;43.58;100003.91;4995596;28;45410;-64
2022/04/21 04:16:24;;;;;;;;;13.75;13.00;;;;;10.30;43.78;100005.66;4996670;28;45605;-63
2022/04/21 04:18:50;;;;;;;;;16.00;13.00;;;;;10.25;43.90;100010.28;4995128;28;45385;-63
2022/04/21 04:21:15;;;;;;;;;13.25;13.25;;;;;10.22;43.57;100005.19;4996156;28;45457;-64
2022/04/21 04:23:41;;;;;;;;;11.75;11.75;;;;;10.20;44.01;100001.78;4996430;28;45305;-64
2022/04/21 04:26:06;;;;;;;;;12.75;12.75;;;;;10.18;44.07;100008.88;4995145;28;45208;-61
2022/04/21 04:28:31;;;;;;;;;14.50;11.00;;;;;10.16;44.04;100005.47;4996612;28;45271;-63
2022/04/21 04:30:57;;;;;;;;;12.50;11.50;;;;;10.13;44.15;100003.00;4995365;28;45287;-60
2022/04/21 04:33:22;;;;;;;;;14.25;14.00;;;;;10.13;44.23;100016.13;4996416;28;45217;-64
2022/04/21 04:35:47;;;;;;;;;16.25;13.25;;;;;10.09;43.96;100013.66;4996374;28;45227;-64
2022/04/21 04:38:14;;;;;;;;;12.00;11.75;;;;;10.06;44.03;100010.31;4996072;28;45401;-63
2022/04/21 04:40:39;;;;;;;;;16.75;14.75;;;;;10.05;44.25;100019.13;4996478;28;45361;-64
2022/04/21 04:43:05;;;;;;;;;12.25;12.25;;;;;9.97;44.51;100018.63;4995968;28;45270;-64
2022/04/21 04:48:14;;;;;;;;;13.75;12.25;;;;;9.97;44.69;100037.00;4996025;28;45377;-66
2022/04/21 04:50:40;;;;;;;;;15.00;12.75;;;;;9.95;44.72;100026.59;4995846;28;45397;-59
2022/04/21 04:53:05;;;;;;;;;14.00;12.00;;;;;9.92;45.12;100021.47;4995879;28;45343;-64
2022/04/21 04:55:31;;;;;;;;;15.50;13.25;;;;;9.94;44.78;100024.88;4996004;28;45412;-64
2022/04/21 04:57:56;;;;;;;;;14.50;13.75;;;;;9.93;45.01;100025.81;4995700;28;45401;-60
2022/04/21 05:00:21;;;;;;;;;18.50;14.75;;;;;9.91;45.18;100019.78;4995410;28;49642;-60
2022/04/21 05:02:47;;;;;;;;;15.25;13.00;;;;;9.90;45.07;100026.78;4977843;28;45268;-59
2022/04/21 05:05:12;;;;;;;;;15.50;14.50;;;;;9.90;45.17;100029.41;4996245;28;45365;-59
2022/04/21 05:07:39;;;;;;;;;13.00;13.00;;;;;9.89;45.52;100025.09;4995504;28;46288;-61
2022/04/21 05:10:08;;;;;;;;;12.00;12.00;;;;;9.88;45.53;100033.06;4994186;28;45855;-60
2022/04/21 05:12:34;;;;;;;;;14.50;14.50;;;;;9.90;45.65;100033.84;4995677;28;45450;-60
2022/04/21 05:14:59;;;;;;;;;14.50;13.50;;;;;9.90;45.60;100036.47;4995827;28;45343;-60
2022/04/21 05:17:28;;;;;;;;;20.50;17.00;;;;;9.89;45.62;100032.97;4995552;28;45519;-58
2022/04/21 05:19:53;;;;;;;;;21.25;18.25;;;;;9.88;45.57;100031.25;4995408;28;45354;-64
2022/04/21 05:22:27;;;;;;;;;13.75;12.25;;;;;9.89;45.56;100032.97;4995453;28;45372;-60
2022/04/21 05:24:53;;;;;;;;;16.75;16.75;;;;;9.91;45.78;100032.91;4995088;28;45372;-59
2022/04/21 05:27:18;;;;;;;;;14.25;14.25;;;;;9.99;45.75;100046.53;4995112;28;46164;-61
2022/04/21 05:32:35;;;;;;;;;16.00;13.50;;;;;10.06;45.50;100032.19;4995108;28;45294;-62
2022/04/21 05:35:02;;;;;;;;;12.75;12.75;;;;;10.07;45.65;100038.28;4977778;28;45246;-63
2022/04/21 05:37:27;;;;;;;;;19.75;15.50;;;;;10.14;45.53;100041.50;4995204;28;46327;-62
2022/04/21 05:39:53;;;;;;;;;18.50;16.00;;;;;10.14;45.43;100026.59;4995139;28;45508;-62
2022/04/21 05:42:22;;;;;;;;;15.50;14.00;;;;;10.20;45.60;100028.94;4995266;28;45371;-62
2022/04/21 05:44:49;;;;;;;;;15.50;15.00;;;;;10.23;45.43;100025.28;4995447;28;45209;-63
2022/04/21 05:47:15;;;;;;;;;16.00;13.50;;;;;10.21;45.55;100020.13;4995121;28;46201;-66
2022/04/21 05:49:41;;;;;;;;;17.00;15.00;;;;;10.25;45.09;100012.09;4995193;28;45256;-67
2022/04/21 05:52:08;;;;;;;;;15.00;14.50;;;;;10.31;45.34;100020.50;4993628;28;45349;-65
2022/04/21 05:54:33;;;;;;;;;16.50;13.75;;;;;10.34;45.37;100019.53;4995064;28;45291;-65
2022/04/21 05:56:59;;;;;;;;;18.50;17.25;;;;;10.34;45.63;100020.34;4994816;28;46210;-65
2022/04/21 05:59:24;;;;;;;;;14.75;13.25;;;;;10.39;45.59;100017.53;4994876;28;45277;-66
2022/04/21 06:01:50;;;;;;;;;19.00;15.75;;;;;10.47;45.26;100014.53;4995157;28;45368;-67
2022/04/21 06:04:16;;;;;;;;;14.25;13.25;;;;;10.51;45.23;100022.22;4995399;28;45564;-63
2022/04/21 06:06:41;;;;;;;;;17.00;16.25;;;;;10.56;45.22;100013.25;4994899;28;45270;-59
2022/04/21 06:09:06;;;;;;;;;19.75;16.25;;;;;10.57;44.82;100010.53;4995040;28;45394;-62
2022/04/21 06:11:35;;;;;;;;;17.75;16.50;;;;;10.63;45.33;100006.75;4994935;28;46123;-65
2022/04/21 06:14:00;;;;;;;;;17.25;15.50;;;;;10.65;44.87;100010.16;4994976;28;45527;-63
2022/04/21 06:16:25;;;;;;;;;17.00;14.75;;;;;10.70;45.45;100008.16;4994527;28;46255;-64
2022/04/21 06:18:51;;;;;;;;;14.00;14.00;;;;;10.73;45.03;100009.78;4994491;28;45377;-68
2022/04/21 06:21:16;;;;;;;;;17.75;14.50;;;;;10.73;45.19;100007.16;4993576;28;45338;-61
2022/04/21 06:23:42;;;;;;;;;18.00;15.00;;;;;10.77;45.33;100006.06;4999007;28;45462;-64
2022/04/21 06:26:07;;;;;;;;;20.75;17.50;;;;;10.79;45.20;100010.31;5013267;28;46191;-62
2022/04/21 06:28:35;;;;;;;;;17.75;14.00;;;;;10.76;45.39;100001.75;5011690;28;45326;-63
2022/04/21 06:31:01;;;;;;;;;24.50;21.75;;;;;10.81;44.97;100005.81;5004904;28;45610;-63
2022/04/21 06:33:31;;;;;;;;;21.00;17.00;;;;;10.81;45.43;100002.38;4993534;28;45440;-62
2022/04/21 06:35:57;;;;;;;;;16.00;15.25;;;;;10.86;45.08;100002.97;4994854;28;46850;-63
2022/04/21 06:38:22;;;;;;;;;18.50;15.25;;;;;10.87;45.03;100002.06;5016577;28;45454;-64
2022/04/21 06:40:47;;;;;;;;;18.50;15.50;;;;;10.88;45.28;100002.88;5017754;28;45374;-66
2022/04/21 06:48:42;;;;;;;;;17.50;17.50;;;;;11.07;44.94;100008.06;5016787;28;45402;-65
2022/04/21 06:51:08;;;;;;;;;19.00;17.25;;;;;11.07;44.76;100001.00;5016858;28;45473;-63
2022/04/21 06:53:34;;;;;;;;;20.25;16.50;;;;;11.08;45.20;100005.34;5016831;28;45563;-67
2022/04/21 06:56:00;;;;;;;;;13.25;13.25;;;;;11.14;44.48;100004.19;5020743;28;45487;-67
2022/04/21 06:58:25;;;;;;;;;17.50;16.75;;;;;11.16;44.99;100002.31;5029568;28;45466;-65
2022/04/21 07:00:51;;;;;;;;;20.25;17.75;;;;;11.30;44.95;100003.38;5017189;28;45188;-67
2022/04/21 07:03:16;;;;;;;;;21.00;19.25;;;;;11.39;44.96;100009.03;5017592;28;45233;-68
2022/04/21 07:05:41;;;;;;;;;16.25;16.25;;;;;11.43;44.63;100001.81;5016809;28;48439;-67
2022/04/21 07:08:07;;;;;;;;;18.00;17.00;;;;;11.48;44.33;100002.41;4998849;28;45694;-65
2022/04/21 07:10:34;;;;;;;;;20.25;20.25;;;;;11.48;44.59;99991.03;5017109;28;45427;-68
2022/04/21 07:13:06;;;;;;;;;17.25;16.75;;;;;11.54;44.31;99996.81;5015700;28;45391;-65
2022/04/21 07:15:32;;;;;;;;;15.75;14.25;;;;;11.53;44.76;100002.19;4999487;28;45506;-67
2022/04/21 07:17:57;;;;;;;;;18.25;16.50;;;;;11.55;44.60;100000.31;5015736;28;45295;-66
2022/04/21 07:20:22;;;;;;;;;18.75;16.25;;;;;11.64;44.90;100001.59;5016107;28;45500;-64
2022/04/21 07:22:48;;;;;;;;;16.00;16.00;;;;;11.74;44.46;99996.69;5016208;28;45503;-64
2022/04/21 07:25:14;;;;;;;;;19.00;18.00;;;;;11.79;44.12;99994.63;5016070;28;46994;-64
2022/04/21 07:27:39;;;;;;;;;20.25;17.75;;;;;11.86;44.62;99993.38;5014723;28;45468;-64
2022/04/21 07:30:06;;;;;;;;;19.50;16.75;;;;;11.93;44.03;99992.09;5006308;28;45474;-66
2022/04/21 07:32:31;;;;;;;;;14.50;13.50;;;;;11.98;44.26;99987.41;5016212;28;45305;-65
2022/04/21 07:34:56;;;;;;;;;19.25;18.25;;;;;12.05;43.72;99981.84;5015099;28;45430;-66
2022/04/21 07:37:22;;;;;;;;;18.25;14.25;;;;;12.04;43.15;99975.72;5016492;28;45301;-65
2022/04/21 07:39:47;;;;;;;;;20.00;17.25;;;;;12.20;44.24;99977.50;5016950;28;45316;-66
2022/04/21 07:42:13;;;;;;;;;20.25;20.25;;;;;12.29;43.72;99982.25;5016927;28;45399;-71
2022/04/21 07:44:39;;;;;;;;;13.75;13.75;;;;;12.34;43.48;99969.66;5016387;28;46230;-68
2022/04/21 07:47:06;;;;;;;;;14.50;12.75;;;;;12.43;43.00;99978.81;5016308;28;45336;-65
2022/04/21 07:49:47;;;;;;;;;16.25;15.25;;;;;12.44;43.18;99966.47;5016587;28;45258;-63
2022/04/21 07:55:14;;;;;;;;;16.25;15.25;;;;;12.65;43.14;99977.56;5015748;28;45823;-65
2022/04/21 07:57:40;;;;;;;;;18.50;15.50;;;;;12.67;42.75;99976.53;5015482;28;45455;-65
2022/04/21 08:00:06;;;;;;;;;14.75;14.75;;;;;12.73;43.06;99969.22;5016089;28;45468;-65
2022/04/21 08:02:32;;;;;;;;;16.75;15.50;;;;;12.90;42.51;99979.63;5015807;28;45500;-68
2022/04/21 08:04:57;;;;;;;;;14.75;13.25;;;;;12.97;42.16;99978.31;5016185;28;46183;-64
2022/04/21 08:07:23;;;;;;;;;14.75;14.75;;;;;13.04;42.42;99981.41;5016045;28;45400;-60
2022/04/21 08:09:49;;;;;;;;;19.00;14.75;;;;;13.16;41.99;99990.41;5016319;28;45479;-65
2022/04/21 08:12:14;;;;;;;;;17.75;14.50;;;;;13.28;42.19;99994.09;5015944;28;45226;-65
2022/04/21 08:14:39;;;;;;;;;17.00;15.75;;;;;13.41;42.18;99981.84;5015403;28;52938;-66
2022/04/21 08:17:05;;;;;;;;;14.25;12.75;;;;;13.57;42.24;99994.13;5015310;28;45443;-64
2022/04/21 08:19:32;;;;;;;;;15.50;14.00;;;;;13.74;42.11;99990.41;4997870;28;45404;-64
2022/04/21 08:21:57;;;;;;;;;18.00;18.00;;;;;13.93;41.55;99987.47;5015791;28;45262;-65
2022/04/21 08:32:37;;;;;;;;;17.00;14.50;;;;;14.09;41.34;99981.19;5015499;28;45313;-67
2022/04/21 08:35:06;;;;;;;;;17.50;15.75;;;;;14.15;40.60;99981.66;5014755;28;46555;-63
2022/04/21 08:37:34;;;;;;;;;15.75;15.75;;;;;14.20;41.42;99977.84;5015428;28;45432;-64
2022/04/21 08:40:00;;;;;;;;;25.25;23.25;;;;;14.41;41.73;99979.09;5015496;28;45431;-66
2022/04/21 08:42:30;;;;;;;;;16.75;16.75;;;;;14.61;40.98;99984.84;5016096;28;45562;-65
2022/04/21 08:44:57;;;;;;;;;20.25;20.25;;;;;14.81;41.07;99982.69;4997527;28;46126;-62
2022/04/21 08:47:24;;;;;;;;;55.50;45.25;;;;;14.98;41.01;99982.41;5015763;28;45458;-68
2022/04/21 08:49:54;;;;;;;;;17.00;16.50;;;;;14.94;39.25;99977.41;5014651;28;45480;-66
2022/04/21 08:52:20;;;;;;;;;19.50;18.25;;;;;14.93;39.95;99981.88;5015918;28;45435;-66
2022/04/21 08:54:46;;;;;;;;;16.50;16.50;;;;;14.96;39.91;99981.69;5015192;28;45383;-66
2022/04/21 08:57:12;;;;;;;;;16.25;14.50;;;;;15.06;39.96;99978.41;5015337;28;45364;-65
2022/04/21 08:59:38;;;;;;;;;17.00;17.00;;;;;15.09;39.67;99975.53;5013664;28;45482;-66
2022/04/21 09:02:04;;;;;;;;;18.50;17.75;;;;;15.17;39.19;99978.50;5015533;28;45506;-66
2022/04/21 09:04:30;;;;;;;;;17.75;17.75;;;;;15.25;39.28;99983.25;5014920;28;45394;-67
2022/04/21 09:06:56;;;;;;;;;65.00;55.25;;;;;15.32;39.36;99987.16;5015330;28;45168;-65
2022/04/21 09:09:22;;;;;;;;;18.50;17.00;;;;;15.46;39.69;99980.91;5015481;28;45334;-65
2022/04/21 09:11:52;;;;;;;;;18.00;18.00;;;;;15.56;38.72;99981.94;5015359;28;45289;-65
2022/04/21 09:14:20;;;;;;;;;18.25;16.75;;;;;15.47;38.91;99975.53;4997085;28;45448;-65
2022/04/21 09:16:45;;;;;;;;;17.25;15.00;;;;;15.50;38.82;99974.44;5015149;28;45394;-64
2022/04/21 09:19:11;;;;;;;;;16.25;15.00;;;;;15.51;38.57;99975.31;5015259;28;45250;-67
2022/04/21 09:21:38;;;;;;;;;16.75;15.25;;;;;15.51;38.82;99962.06;5014032;28;45477;-65
2022/04/21 09:24:22;;;;;;;;;11.50;10.75;;;;;15.70;38.58;99972.16;4994895;28;47009;-64
2022/04/21 09:26:47;;;;;;;;;18.00;17.00;;;;;15.79;38.48;99955.59;4994917;28;45310;-66
2022/04/21 09:29:33;;;;;;;;;21.50;16.50;;;;;15.94;38.17;99966.94;4994842;28;45373;-66
2022/04/21 09:32:02;;;;;;;;;17.00;17.00;;;;;16.04;38.52;99954.69;4995125;28;45496;-68
2022/04/21 09:34:29;;;;;;;;;17.75;15.75;;;;;16.23;38.19;99961.31;4995225;28;46395;-64
2022/04/21 09:36:58;;;;;;;;;20.75;18.50;;;;;16.37;38.20;99962.94;4993661;28;45357;-65
2022/04/21 09:39:24;;;;;;;;;15.75;14.25;;;;;16.42;38.13;99968.75;4995225;28;45278;-66
2022/04/21 09:41:54;;;;;;;;;20.75;16.25;;;;;16.43;37.21;99958.97;4995002;28;45515;-67
2022/04/21 09:47:07;;;;;;;;;18.50;16.50;;;;;16.67;37.47;99950.13;4994366;28;45456;-67
2022/04/21 09:49:42;;;;;;;;;19.25;15.00;;;;;16.78;37.25;99945.69;4994771;28;45279;-62
2022/04/21 09:52:07;;;;;;;;;23.25;20.50;;;;;16.90;37.10;99949.22;4994432;28;45270;-66
2022/04/21 09:54:34;;;;;;;;;20.00;15.00;;;;;17.01;36.77;99940.47;4993980;28;46046;-65
2022/04/21 09:57:00;;;;;;;;;17.00;15.25;;;;;17.03;36.43;99927.03;4994392;28;45469;-62
2022/04/21 09:59:26;;;;;;;;;20.50;18.75;;;;;17.22;36.72;99937.09;4994583;28;45448;-64
2022/04/21 10:01:51;;;;;;;;;14.00;14.00;;;;;17.38;35.50;99937.56;4993232;28;45546;-65
2022/04/21 10:04:20;;;;;;;;;17.50;14.75;;;;;17.44;34.71;99941.53;4994120;28;46515;-68
2022/04/21 10:06:47;;;;;;;;;19.00;17.25;;;;;17.43;34.56;99933.69;4994147;28;45390;-65
2022/04/21 10:09:16;;;;;;;;;15.75;15.75;;;;;17.50;34.77;99932.25;4994284;28;45251;-67
2022/04/21 10:11:42;;;;;;;;;20.25;17.75;;;;;17.55;34.71;99930.06;4996396;28;45376;-67
2022/04/21 10:14:12;;;;;;;;;15.00;14.00;;;;;17.62;34.16;99919.78;4997669;28;46138;-67
2022/04/21 10:16:39;;;;;;;;;19.00;15.25;;;;;17.63;34.61;99914.31;4997485;28;45303;-64
2022/04/21 10:19:04;;;;;;;;;19.50;18.00;;;;;17.76;34.80;99919.50;4996623;28;46010;-67
2022/04/21 10:21:48;;;;;;;;;15.50;15.50;;;;;17.90;34.39;99912.22;4997821;28;45619;-64
2022/04/21 10:24:24;;;;;;;;;19.00;17.75;;;;;18.04;34.25;99911.94;4997424;28;45580;-68
2022/04/21 10:26:50;;;;;;;;;14.75;14.75;;;;;18.13;33.68;99904.19;4997580;28;45353;-62
2022/04/21 10:29:26;;;;;;;;;20.00;20.00;;;;;18.27;33.31;99908.38;4997589;28;45292;-65
2022/04/21 10:31:51;;;;;;;;;21.25;20.50;;;;;18.37;32.99;99894.13;4995955;28;45396;-66
2022/04/21 10:34:40;;;;;;;;;19.25;16.25;;;;;18.50;32.21;99893.97;4997273;28;47085;-66
2022/04/21 10:37:15;;;;;;;;;17.25;15.25;;;;;18.64;32.52;99886.59;4997150;28;45454;-65
2022/04/21 10:40:09;;;;;;;;;19.50;19.25;;;;;18.77;32.19;99889.06;4997339;28;45234;-63
2022/04/21 10:42:55;;;;;;;;;17.25;17.25;;;;;18.83;31.04;99886.72;4996243;28;45323;-64
2022/04/21 10:45:33;;;;;;;;;10.75;10.00;;;;;18.90;31.67;99889.69;4997614;28;46246;-66
2022/04/21 10:48:08;;;;;;;;;23.25;20.00;;;;;18.99;31.87;99893.41;4997653;28;45290;-66
2022/04/21 10:50:36;;;;;;;;;17.00;17.00;;;;;19.08;31.33;99889.94;4997600;28;45343;-67
2022/04/21 10:58:33;;;;;;;;;19.25;17.25;;;;;19.05;30.84;99882.22;4997653;28;45528;-65
2022/04/21 11:01:28;;;;;;;;;21.50;19.00;;;;;19.02;30.31;99879.00;4997587;28;45356;-66
2022/04/21 11:04:19;;;;;;;;;15.25;15.25;;;;;19.00;30.97;99884.44;4996936;28;45655;-66
2022/04/21 11:06:51;;;;;;;;;20.25;19.00;;;;;19.16;31.43;99875.13;4996619;28;47247;-65
2022/04/21 11:09:37;;;;;;;;;22.50;20.00;;;;;19.40;30.50;99874.75;4996074;28;45373;-65
2022/04/21 11:12:04;;;;;;;;;17.75;14.75;;;;;19.49;30.18;99878.44;4996699;28;45395;-63
2022/04/21 11:14:33;;;;;;;;;21.75;21.75;;;;;19.42;29.58;99872.81;4997067;28;45440;-63
2022/04/21 11:17:00;;;;;;;;;17.50;14.75;;;;;19.41;29.53;99871.09;4996979;28;45588;-66
2022/04/21 11:19:28;;;;;;;;;18.00;14.50;;;;;19.48;30.13;99872.25;4996772;28;45275;-63
2022/04/21 11:21:53;;;;;;;;;15.75;14.75;;;;;19.45;30.00;99853.03;4996409;28;45566;-67
2022/04/21 11:24:19;;;;;;;;;18.75;16.00;;;;;19.60;30.32;99859.66;4996861;28;45246;-65
2022/04/21 11:26:52;;;;;;;;;21.75;20.25;;;;;19.70;28.87;99851.69;4996373;28;45547;-65
2022/04/21 11:29:18;;;;;;;;;19.25;18.50;;;;;19.58;28.85;99848.28;4997103;28;45238;-67
2022/04/21 11:31:44;;;;;;;;;14.50;14.50;;;;;19.56;28.83;99845.72;4995076;28;45407;-60
2022/04/21 11:34:09;;;;;;;;;16.00;15.50;;;;;19.66;28.39;99852.94;4996613;28;45317;-64
2022/04/21 11:36:36;;;;;;;;;35.50;31.75;;;;;19.62;28.49;99848.84;4996253;28;45308;-63
2022/04/21 11:39:07;;;;;;;;;15.00;15.00;;;;;19.58;28.16;99842.09;4996822;28;45330;-65
2022/04/21 11:41:33;;;;;;;;;15.00;13.00;;;;;19.45;29.13;99848.53;4996788;28;45288;-67
2022/04/21 11:44:00;;;;;;;;;23.25;18.50;;;;;19.38;29.61;99847.38;4996698;28;45286;-67
2022/04/21 11:46:26;;;;;;;;;17.50;16.00;;;;;19.46;30.01;99860.03;4978638;28;46212;-66
2022/04/21 11:49:00;;;;;;;;;17.25;15.50;;;;;19.55;29.16;99849.38;4996509;28;45448;-66
2022/04/21 11:51:27;;;;;;;;;17.00;16.25;;;;;19.66;29.25;99840.41;4996400;28;45407;-64
2022/04/21 11:53:52;;;;;;;;;14.50;14.50;;;;;19.78;29.93;99838.47;4996284;28;45636;-65
2022/04/21 11:56:18;;;;;;;;;18.25;17.25;;;;;20.02;29.06;99841.72;4995740;28;45543;-62
2022/04/21 11:58:44;;;;;;;;;17.25;14.00;;;;;20.11;28.76;99835.53;4996145;28;45318;-64
2022/04/21 12:06:49;;;;;;;;;16.00;13.25;;;;;20.43;27.77;99827.19;4995535;28;45362;-67
2022/04/21 12:09:17;;;;;;;;;14.25;14.25;;;;;20.52;27.81;99827.31;4995638;28;45315;-67